Weather observations for the past three days for
Havana International Airport
Metric (Imperial)
Date Time (cdt) Wind (kph) Vis. (km) Weather Sky Cond. Temperature (ºC) Relative Humidity Wind Chill (°C) Heat Index (°C) Pressure Precipitation (cm)
Air Dwpt 6 hour altimeter (cm) sea level (mb) 1 hr 3 hr 6 hr
Max. Min.
02 12:50 Vrbl 2 0.00 Partly Cloudy SCT030 33 24 59% 39 0 0.0
02 11:50 Vrbl 4 0.00 Partly Cloudy SCT030 33 24 59% 39 0 0.0
02 10:50 Vrbl 4 0.00 A Few Clouds FEW025TCU FEW030 31 25 70% 38 0 0.0
02 09:50 Vrbl 4 0.00 A Few Clouds FEW025TCU FEW030 30 26 79% 37 0 0.0
02 08:50 NE 4 0.00 A Few Clouds FEW025TCU FEW030 27 26 94% 31 0 0.0
02 07:50 Vrbl 2 0.00 A Few Clouds FEW025TCU FEW030 23 23 100% 0 0.0
02 06:50 W 2 0.00 A Few Clouds FEW030 23 23 100% 0 0.0
02 05:50 S 2 0.00 A Few Clouds FEW030 23 23 100% 0 0.0
02 04:50 SW 2 0.00 A Few Clouds FEW030 24 23 94% 23 0 0.0
02 03:50 Vrbl 4 0.00 A Few Clouds FEW030 24 24 100% 23 0 0.0
02 02:50 Vrbl 4 0.00 A Few Clouds FEW030 24 24 100% 23 0 0.0
02 01:50 Vrbl 2 0.00 A Few Clouds FEW030 24 24 100% 23 0 0.0
02 00:50 Vrbl 4 0.00 A Few Clouds FEW030 25 24 94% 26 0 0.0
01 23:50 Vrbl 2 0.00 A Few Clouds FEW030 25 25 100% 25 0 0.0
01 22:50 Vrbl 6 0.00 A Few Clouds FEW030 26 25 94% 28 0 0.0
01 21:50 Vrbl 6 0.00 A Few Clouds FEW030 27 25 89% 31 0 0.0
01 20:50 Vrbl 6 0.00 A Few Clouds FEW030 27 25 89% 31 0 0.0
01 19:50 Vrbl 2 0.00 A Few Clouds FEW030 27 25 89% 31 0 0.0
01 18:50 Vrbl 2 0.00 A Few Clouds FEW030 27 25 89% 31 0 0.0
01 17:50 Vrbl 6 0.00 Partly Cloudy SCT030 27 24 84% 30 0 0.0
01 16:50 Vrbl 2 0.00 Partly Cloudy SCT030 27 23 79% 30 0 0.0
01 15:50 NW 13 0.00 Mostly Cloudy SCT018CB BKN025 32 25 67% 39 0 0.0
01 14:50 N 17 0.00 Partly Cloudy FEW020CB SCT030 33 26 67% 42 0 0.0
01 13:50 N 15 0.00 Partly Cloudy FEW020CB SCT030 33 26 67% 42 0 0.0
01 12:50 Vrbl 7 0.00 Partly Cloudy SCT030 33 23 56% 38 0 0.0
01 11:50 NE 7 0.00 Partly Cloudy SCT030 32 23 59% 37 0 0.0
01 10:50 E 9 0.00 Partly Cloudy SCT030 31 25 70% 38 0 0.0
01 09:50 NE 9 0.00 A Few Clouds FEW030 30 26 79% 37 0 0.0
01 08:50 Vrbl 4 0.00 A Few Clouds FEW030 28 26 89% 34 0 0.0
01 07:50 Vrbl 2 0.00 A Few Clouds FEW030 24 24 100% 23 0 0.0
01 06:50 Vrbl 2 0.00 Patches Fog FEW030 24 24 100% 23 0 0.0
01 05:50 Vrbl 2 0.00 Patches Fog FEW030 24 23 94% 23 0 0.0
01 04:50 Calm 0.00 A Few Clouds FEW030 24 24 100% 23 0 0.0
01 03:50 SW 4 0.00 A Few Clouds FEW030 25 25 100% 25 0 0.0
01 02:50 Vrbl 4 0.00 A Few Clouds FEW030 25 25 100% 25 0 0.0
01 01:50 NE 2 0.00 A Few Clouds FEW030 25 25 100% 25 0 0.0
01 00:50 Vrbl 2 0.00 A Few Clouds FEW030 26 25 94% 28 0 0.0
31 23:50 Vrbl 6 0.00 A Few Clouds FEW030 26 26 100% 28 0 0.0
31 22:50 NE 9 0.00 A Few Clouds FEW030 27 26 94% 31 0 0.0
31 21:50 NE 11 0.00 A Few Clouds FEW030 28 26 89% 34 0 0.0
31 20:50 NE 15 0.00 A Few Clouds FEW030 29 26 84% 36 0 0.0
31 18:50 NE 17 0.00 Partly Cloudy FEW030 SCT200 31 25 70% 38 0 0.0
31 17:50 NE 17 0.00 Partly Cloudy FEW030 SCT200 32 24 63% 38 0 0.0
31 16:50 N 19 0.00 Thunderstorm in Vicinity FEW018CB SCT025 32 24 63% 38 0 0.0
31 15:50 N 20 0.00 Partly Cloudy FEW020CB SCT025 34 24 56% 41 0 0.0
31 14:50 N 19 0.00 Partly Cloudy FEW020TCU SCT025 34 25 59% 42 0 0.0
31 13:50 Vrbl 9 0.00 Partly Cloudy SCT030 34 25 59% 42 0 0.0
31 12:50 Vrbl 9 0.00 Partly Cloudy SCT030 33 25 63% 41 0 0.0
31 11:50 E 11 0.00 Partly Cloudy SCT030 32 25 67% 39 0 0.0
31 10:50 NE 13 0.00 A Few Clouds FEW030 31 25 70% 38 0 0.0
31 09:50 E 7 0.00 A Few Clouds FEW030 30 26 79% 37 0 0.0
31 08:50 E 9 0.00 A Few Clouds FEW030 28 26 89% 34 0 0.0
31 07:50 Vrbl 4 0.00 A Few Clouds FEW030 25 25 100% 25 0 0.0
31 06:50 Vrbl 4 0.00 A Few Clouds FEW030 25 25 100% 25 0 0.0
31 05:50 NE 6 0.00 A Few Clouds FEW030 24 24 100% 23 0 0.0
31 04:50 Vrbl 2 0.00 A Few Clouds FEW030 25 25 100% 25 0 0.0
31 03:50 Vrbl 4 0.00 A Few Clouds FEW030 25 25 100% 25 0 0.0
31 02:50 Vrbl 6 0.00 A Few Clouds FEW030 26 25 94% 28 0 0.0
31 01:50 Vrbl 2 0.00 A Few Clouds FEW030 26 26 100% 28 0 0.0
31 00:50 Vrbl 2 0.00 A Few Clouds FEW030 26 26 100% 28 0 0.0
30 23:50 NE 4 0.00 A Few Clouds FEW030 26 25 94% 28 0 0.0
30 22:50 Vrbl 2 0.00 A Few Clouds FEW030 26 26 100% 28 0 0.0
30 21:50 NE 6 0.00 A Few Clouds FEW030 27 26 94% 31 0 0.0
30 20:50 NE 7 0.00 A Few Clouds FEW030 27 26 94% 31 0 0.0
30 19:50 NE 7 0.00 A Few Clouds FEW030 27 25 89% 31 0 0.0
30 18:50 NE 9 0.00 A Few Clouds FEW030 27 24 84% 30 0 0.0
30 17:50 NE 11 0.00 A Few Clouds FEW030 26 22 79% 28 0 0.0
30 16:50 NW 15 0.00 Thunderstorm FEW018CB BKN025 27 23 79% 30 0 0.0
30 15:50 Vrbl 2 0.00 Mostly Cloudy FEW020TCU BKN025 31 26 75% 39 0 0.0
30 14:50 N 13 0.00 Mostly Cloudy FEW020TCU BKN025 32 26 71% 41 0 0.0
30 13:50 Vrbl 7 0.00 Mostly Cloudy FEW020TCU BKN025 33 24 59% 39 0 0.0
Date Time (cdt) Wind (kph) Vis. (km) Weather Sky Cond. Air Dwpt Max. Min. Relative Humidity Wind Chill (°C) Heat Index (°C) altimeter (cm) sea level (mb) 1 hr 3 hr 6 hr
6 hour
Temperature (ºC) Pressure Precipitation (cm)